TimeEST,TemperatureF,Dew PointF,Humidity,Sea Level PressureIn,VisibilityMPH,Wind Direction,Wind SpeedMPH,Gust SpeedMPH,PrecipitationIn,Events,Conditions,WindDirDegrees,DateUTC
12:56 AM,15.1,6.1,68,30.04,-9999.0,NNW,8.1,-,N/A,,Unknown,330,2014-02-02 05:56:00
1:56 AM,16.0,9.0,74,30.05,-9999.0,NNW,8.1,-,N/A,,Unknown,340,2014-02-02 06:56:00
2:56 AM,15.1,7.0,70,30.07,-9999.0,NNW,10.4,-,N/A,,Unknown,340,2014-02-02 07:56:00
3:56 AM,16.0,9.0,74,30.07,-9999.0,NNW,6.9,-,N/A,,Unknown,340,2014-02-02 08:56:00
4:56 AM,16.0,9.0,74,30.08,-9999.0,NNW,4.6,-,N/A,,Unknown,340,2014-02-02 09:56:00
5:56 AM,16.0,8.1,71,30.09,-9999.0,North,11.5,-,N/A,,Unknown,350,2014-02-02 10:56:00
6:56 AM,14.0,7.0,74,30.11,-9999.0,North,12.7,-,N/A,,Unknown,350,2014-02-02 11:56:00
7:56 AM,12.9,5.0,71,30.13,-9999.0,North,13.8,-,N/A,,Unknown,360,2014-02-02 12:56:00
8:56 AM,12.9,3.9,67,30.17,-9999.0,North,8.1,-,N/A,,Unknown,350,2014-02-02 13:56:00
9:56 AM,12.9,6.1,74,30.19,-9999.0,NNW,9.2,-,0.01,,Unknown,340,2014-02-02 14:56:00
10:56 AM,12.9,5.0,71,30.21,-9999.0,NNW,10.4,-,N/A,,Unknown,330,2014-02-02 15:56:00
11:56 AM,12.9,-0.9,54,30.23,-9999.0,WNW,11.5,-,N/A,,Unknown,300,2014-02-02 16:56:00
12:56 PM,12.0,1.9,64,30.22,-9999.0,NNW,8.1,-,N/A,,Unknown,340,2014-02-02 17:56:00
1:56 PM,14.0,1.0,56,30.21,-9999.0,NNW,11.5,-,N/A,,Unknown,340,2014-02-02 18:56:00
2:56 PM,12.0,-0.9,56,30.21,-9999.0,NNW,10.4,-,N/A,,Unknown,330,2014-02-02 19:56:00
3:56 PM,10.9,-2.0,56,30.22,-9999.0,North,5.8,-,N/A,,Unknown,10,2014-02-02 20:56:00
4:56 PM,9.0,-2.9,59,30.24,-9999.0,Calm,Calm,-,N/A,,Unknown,0,2014-02-02 21:56:00
5:56 PM,1.9,-5.1,72,30.25,-9999.0,Calm,Calm,-,N/A,,Unknown,0,2014-02-02 22:56:00
6:56 PM,1.9,-4.0,76,30.26,-9999.0,South,5.8,-,N/A,,Unknown,180,2014-02-02 23:56:00
7:56 PM,-0.9,-7.1,75,30.26,-9999.0,South,5.8,-,N/A,,Unknown,180,2014-02-03 00:56:00
8:56 PM,1.9,-5.1,72,30.25,-9999.0,SSW,5.8,-,N/A,,Unknown,210,2014-02-03 01:56:00
9:56 PM,-0.0,-7.1,72,30.24,-9999.0,SSW,6.9,-,N/A,,Unknown,200,2014-02-03 02:56:00
10:56 PM,-2.0,-8.0,76,30.24,-9999.0,SSW,6.9,-,N/A,,Unknown,210,2014-02-03 03:56:00
11:56 PM,-2.9,-9.0,75,30.24,-9999.0,SSW,8.1,-,N/A,,Unknown,200,2014-02-03 04:56:00